sensor_id;sensor_type;location;lat;lon;timestamp;P1;durP1;ratioP1;P2;durP2;ratioP2
59512;SDS011;45330;51.634;5.562;2023-02-18T00:01:07;34.78;;;22.63;;
59512;SDS011;45330;51.634;5.562;2023-02-18T00:03:34;35.05;;;22.40;;
59512;SDS011;45330;51.634;5.562;2023-02-18T00:05:59;32.97;;;21.92;;
59512;SDS011;45330;51.634;5.562;2023-02-18T00:08:25;38.22;;;21.50;;
59512;SDS011;45330;51.634;5.562;2023-02-18T00:10:50;35.63;;;21.83;;
59512;SDS011;45330;51.634;5.562;2023-02-18T00:13:15;34.08;;;22.60;;
59512;SDS011;45330;51.634;5.562;2023-02-18T00:15:41;35.38;;;21.58;;
59512;SDS011;45330;51.634;5.562;2023-02-18T00:18:06;36.05;;;21.95;;
59512;SDS011;45330;51.634;5.562;2023-02-18T00:20:32;40.50;;;23.08;;
59512;SDS011;45330;51.634;5.562;2023-02-18T00:22:59;35.38;;;21.55;;
59512;SDS011;45330;51.634;5.562;2023-02-18T00:25:25;34.85;;;23.05;;
59512;SDS011;45330;51.634;5.562;2023-02-18T00:27:50;36.88;;;22.85;;
59512;SDS011;45330;51.634;5.562;2023-02-18T00:30:16;35.95;;;22.63;;
59512;SDS011;45330;51.634;5.562;2023-02-18T00:32:41;40.10;;;24.23;;
59512;SDS011;45330;51.634;5.562;2023-02-18T00:35:07;40.63;;;25.17;;
59512;SDS011;45330;51.634;5.562;2023-02-18T00:37:33;38.85;;;24.42;;
59512;SDS011;45330;51.634;5.562;2023-02-18T00:39:58;36.92;;;24.42;;
59512;SDS011;45330;51.634;5.562;2023-02-18T00:42:23;39.78;;;25.27;;
59512;SDS011;45330;51.634;5.562;2023-02-18T00:44:49;38.42;;;25.48;;
59512;SDS011;45330;51.634;5.562;2023-02-18T00:47:14;41.28;;;26.20;;
59512;SDS011;45330;51.634;5.562;2023-02-18T00:49:40;41.13;;;25.42;;
59512;SDS011;45330;51.634;5.562;2023-02-18T00:52:05;40.58;;;26.55;;
59512;SDS011;45330;51.634;5.562;2023-02-18T00:54:31;39.80;;;24.67;;
59512;SDS011;45330;51.634;5.562;2023-02-18T00:56:57;41.03;;;26.10;;
59512;SDS011;45330;51.634;5.562;2023-02-18T00:59:22;39.15;;;25.45;;
59512;SDS011;45330;51.634;5.562;2023-02-18T01:01:47;38.53;;;25.88;;
59512;SDS011;45330;51.634;5.562;2023-02-18T01:04:13;39.45;;;24.75;;
59512;SDS011;45330;51.634;5.562;2023-02-18T01:06:38;40.47;;;25.00;;
59512;SDS011;45330;51.634;5.562;2023-02-18T01:09:04;39.92;;;26.05;;
59512;SDS011;45330;51.634;5.562;2023-02-18T01:11:30;40.42;;;25.35;;
59512;SDS011;45330;51.634;5.562;2023-02-18T01:13:55;41.75;;;26.67;;
59512;SDS011;45330;51.634;5.562;2023-02-18T01:16:21;44.58;;;26.55;;
59512;SDS011;45330;51.634;5.562;2023-02-18T01:18:47;43.67;;;27.85;;
59512;SDS011;45330;51.634;5.562;2023-02-18T01:21:12;44.53;;;28.73;;
59512;SDS011;45330;51.634;5.562;2023-02-18T01:23:38;42.90;;;28.75;;
59512;SDS011;45330;51.634;5.562;2023-02-18T01:26:04;43.67;;;28.08;;
59512;SDS011;45330;51.634;5.562;2023-02-18T01:31:52;45.70;;;28.55;;
59512;SDS011;45330;51.634;5.562;2023-02-18T01:34:17;49.25;;;29.42;;
59512;SDS011;45330;51.634;5.562;2023-02-18T01:36:42;45.80;;;29.85;;
59512;SDS011;45330;51.634;5.562;2023-02-18T01:39:08;50.75;;;29.83;;
59512;SDS011;45330;51.634;5.562;2023-02-18T01:41:33;50.65;;;30.30;;
59512;SDS011;45330;51.634;5.562;2023-02-18T01:44:12;46.78;;;29.75;;
59512;SDS011;45330;51.634;5.562;2023-02-18T01:46:42;50.75;;;29.25;;
59512;SDS011;45330;51.634;5.562;2023-02-18T01:49:07;48.53;;;30.02;;
59512;SDS011;45330;51.634;5.562;2023-02-18T01:51:38;53.38;;;30.92;;
59512;SDS011;45330;51.634;5.562;2023-02-18T01:54:07;52.70;;;31.85;;
59512;SDS011;45330;51.634;5.562;2023-02-18T01:56:39;53.25;;;33.33;;
59512;SDS011;45330;51.634;5.562;2023-02-18T01:59:13;50.83;;;29.95;;
59512;SDS011;45330;51.634;5.562;2023-02-18T02:01:44;54.58;;;30.70;;
59512;SDS011;45330;51.634;5.562;2023-02-18T02:04:10;57.20;;;32.88;;
59512;SDS011;45330;51.634;5.562;2023-02-18T02:06:37;56.88;;;31.05;;
59512;SDS011;45330;51.634;5.562;2023-02-18T02:09:03;52.75;;;30.30;;
59512;SDS011;45330;51.634;5.562;2023-02-18T02:17:06;55.22;;;31.25;;
59512;SDS011;45330;51.634;5.562;2023-02-18T02:28:22;55.95;;;29.08;;
59512;SDS011;45330;51.634;5.562;2023-02-18T02:36:57;47.50;;;26.83;;
59512;SDS011;45330;51.634;5.562;2023-02-18T02:42:25;46.90;;;26.63;;
59512;SDS011;45330;51.634;5.562;2023-02-18T02:45:25;46.70;;;25.00;;
59512;SDS011;45330;51.634;5.562;2023-02-18T02:51:14;46.53;;;25.75;;
59512;SDS011;45330;51.634;5.562;2023-02-18T02:53:44;51.45;;;26.73;;
59512;SDS011;45330;51.634;5.562;2023-02-18T02:56:14;47.63;;;24.60;;
59512;SDS011;45330;51.634;5.562;2023-02-18T02:58:41;45.83;;;25.05;;
59512;SDS011;45330;51.634;5.562;2023-02-18T03:07:13;42.85;;;23.90;;
59512;SDS011;45330;51.634;5.562;2023-02-18T03:12:25;43.35;;;22.25;;
59512;SDS011;45330;51.634;5.562;2023-02-18T03:15:04;42.92;;;21.83;;
59512;SDS011;45330;51.634;5.562;2023-02-18T03:17:43;40.15;;;19.40;;
59512;SDS011;45330;51.634;5.562;2023-02-18T03:20:18;39.95;;;19.75;;
59512;SDS011;45330;51.634;5.562;2023-02-18T03:22:49;36.70;;;18.40;;
59512;SDS011;45330;51.634;5.562;2023-02-18T03:25:17;34.53;;;17.02;;
59512;SDS011;45330;51.634;5.562;2023-02-18T03:27:48;35.30;;;17.17;;
59512;SDS011;45330;51.634;5.562;2023-02-18T03:30:17;33.60;;;16.83;;
59512;SDS011;45330;51.634;5.562;2023-02-18T03:33:05;30.67;;;14.35;;
59512;SDS011;45330;51.634;5.562;2023-02-18T03:35:34;28.83;;;14.43;;
59512;SDS011;45330;51.634;5.562;2023-02-18T03:38:06;29.90;;;13.85;;
59512;SDS011;45330;51.634;5.562;2023-02-18T03:40:36;27.92;;;13.30;;
59512;SDS011;45330;51.634;5.562;2023-02-18T03:43:02;28.73;;;13.50;;
59512;SDS011;45330;51.634;5.562;2023-02-18T03:45:28;26.10;;;12.57;;
59512;SDS011;45330;51.634;5.562;2023-02-18T03:47:53;24.40;;;11.07;;
59512;SDS011;45330;51.634;5.562;2023-02-18T03:50:19;25.42;;;11.55;;
59512;SDS011;45330;51.634;5.562;2023-02-18T03:52:44;25.33;;;10.88;;
59512;SDS011;45330;51.634;5.562;2023-02-18T03:55:10;23.95;;;10.43;;
59512;SDS011;45330;51.634;5.562;2023-02-18T03:57:35;23.60;;;10.38;;
59512;SDS011;45330;51.634;5.562;2023-02-18T04:00:02;21.73;;;9.20;;
59512;SDS011;45330;51.634;5.562;2023-02-18T04:02:30;21.95;;;8.75;;
59512;SDS011;45330;51.634;5.562;2023-02-18T04:04:55;22.63;;;9.30;;
59512;SDS011;45330;51.634;5.562;2023-02-18T04:07:21;21.80;;;8.27;;
59512;SDS011;45330;51.634;5.562;2023-02-18T04:09:46;20.38;;;7.47;;
59512;SDS011;45330;51.634;5.562;2023-02-18T04:12:11;19.52;;;7.13;;
59512;SDS011;45330;51.634;5.562;2023-02-18T04:14:37;21.08;;;7.40;;
59512;SDS011;45330;51.634;5.562;2023-02-18T04:17:02;19.52;;;7.03;;
59512;SDS011;45330;51.634;5.562;2023-02-18T04:19:28;19.42;;;6.63;;
59512;SDS011;45330;51.634;5.562;2023-02-18T04:21:53;18.58;;;6.75;;
59512;SDS011;45330;51.634;5.562;2023-02-18T04:24:18;19.73;;;6.90;;
59512;SDS011;45330;51.634;5.562;2023-02-18T04:26:44;18.27;;;5.80;;
59512;SDS011;45330;51.634;5.562;2023-02-18T04:29:09;18.60;;;5.70;;
59512;SDS011;45330;51.634;5.562;2023-02-18T04:31:34;19.08;;;6.25;;
59512;SDS011;45330;51.634;5.562;2023-02-18T04:34:00;18.38;;;5.63;;
59512;SDS011;45330;51.634;5.562;2023-02-18T04:36:25;16.45;;;5.00;;
59512;SDS011;45330;51.634;5.562;2023-02-18T04:38:51;16.25;;;4.85;;
59512;SDS011;45330;51.634;5.562;2023-02-18T04:41:16;15.68;;;4.85;;
59512;SDS011;45330;51.634;5.562;2023-02-18T04:43:41;16.20;;;5.00;;
59512;SDS011;45330;51.634;5.562;2023-02-18T04:46:07;16.88;;;4.40;;
59512;SDS011;45330;51.634;5.562;2023-02-18T04:48:32;15.40;;;4.72;;
59512;SDS011;45330;51.634;5.562;2023-02-18T04:50:59;16.67;;;5.10;;
59512;SDS011;45330;51.634;5.562;2023-02-18T04:53:24;17.20;;;5.20;;
59512;SDS011;45330;51.634;5.562;2023-02-18T04:55:50;16.27;;;5.47;;
59512;SDS011;45330;51.634;5.562;2023-02-18T04:58:17;16.77;;;5.13;;
59512;SDS011;45330;51.634;5.562;2023-02-18T05:00:43;17.58;;;5.88;;
59512;SDS011;45330;51.634;5.562;2023-02-18T05:03:09;18.42;;;5.80;;
59512;SDS011;45330;51.634;5.562;2023-02-18T05:05:34;18.70;;;6.20;;
59512;SDS011;45330;51.634;5.562;2023-02-18T05:08:00;18.85;;;6.10;;
59512;SDS011;45330;51.634;5.562;2023-02-18T05:10:26;18.30;;;5.63;;
59512;SDS011;45330;51.634;5.562;2023-02-18T05:12:51;19.08;;;6.22;;
59512;SDS011;45330;51.634;5.562;2023-02-18T05:15:16;18.25;;;6.13;;
59512;SDS011;45330;51.634;5.562;2023-02-18T05:17:42;18.10;;;6.13;;
59512;SDS011;45330;51.634;5.562;2023-02-18T05:20:07;17.42;;;5.90;;
59512;SDS011;45330;51.634;5.562;2023-02-18T05:22:33;18.35;;;5.80;;
59512;SDS011;45330;51.634;5.562;2023-02-18T05:24:58;19.00;;;6.35;;
59512;SDS011;45330;51.634;5.562;2023-02-18T05:27:24;17.42;;;5.75;;
59512;SDS011;45330;51.634;5.562;2023-02-18T05:29:49;17.13;;;6.10;;
59512;SDS011;45330;51.634;5.562;2023-02-18T05:32:14;17.45;;;5.70;;
59512;SDS011;45330;51.634;5.562;2023-02-18T05:34:40;17.02;;;5.70;;
59512;SDS011;45330;51.634;5.562;2023-02-18T05:37:05;17.30;;;5.72;;
59512;SDS011;45330;51.634;5.562;2023-02-18T05:39:31;18.90;;;5.97;;
59512;SDS011;45330;51.634;5.562;2023-02-18T05:41:56;18.67;;;5.85;;
59512;SDS011;45330;51.634;5.562;2023-02-18T05:44:22;16.60;;;5.32;;
59512;SDS011;45330;51.634;5.562;2023-02-18T05:46:58;17.45;;;5.45;;
59512;SDS011;45330;51.634;5.562;2023-02-18T05:49:27;16.75;;;5.97;;
59512;SDS011;45330;51.634;5.562;2023-02-18T05:51:53;17.08;;;5.65;;
59512;SDS011;45330;51.634;5.562;2023-02-18T05:54:19;17.77;;;5.90;;
59512;SDS011;45330;51.634;5.562;2023-02-18T05:56:45;17.90;;;5.60;;
59512;SDS011;45330;51.634;5.562;2023-02-18T05:59:10;17.90;;;5.45;;
59512;SDS011;45330;51.634;5.562;2023-02-18T06:01:35;16.60;;;5.25;;
59512;SDS011;45330;51.634;5.562;2023-02-18T06:04:01;17.63;;;5.63;;
59512;SDS011;45330;51.634;5.562;2023-02-18T06:06:26;17.85;;;5.93;;
59512;SDS011;45330;51.634;5.562;2023-02-18T06:08:52;19.50;;;6.43;;
59512;SDS011;45330;51.634;5.562;2023-02-18T06:11:17;18.83;;;6.32;;
59512;SDS011;45330;51.634;5.562;2023-02-18T06:13:42;18.55;;;5.75;;
59512;SDS011;45330;51.634;5.562;2023-02-18T06:16:08;16.73;;;5.55;;
59512;SDS011;45330;51.634;5.562;2023-02-18T06:18:33;18.77;;;6.03;;
59512;SDS011;45330;51.634;5.562;2023-02-18T06:20:59;18.92;;;6.47;;
59512;SDS011;45330;51.634;5.562;2023-02-18T06:23:24;19.20;;;6.60;;
59512;SDS011;45330;51.634;5.562;2023-02-18T06:25:49;19.30;;;6.63;;
59512;SDS011;45330;51.634;5.562;2023-02-18T06:28:15;20.00;;;7.65;;
59512;SDS011;45330;51.634;5.562;2023-02-18T06:30:41;20.67;;;7.25;;
59512;SDS011;45330;51.634;5.562;2023-02-18T06:33:07;21.90;;;8.50;;
59512;SDS011;45330;51.634;5.562;2023-02-18T06:35:32;21.75;;;8.40;;
59512;SDS011;45330;51.634;5.562;2023-02-18T06:37:57;22.45;;;8.80;;
59512;SDS011;45330;51.634;5.562;2023-02-18T06:40:23;24.55;;;10.52;;
59512;SDS011;45330;51.634;5.562;2023-02-18T06:42:48;23.17;;;9.45;;
59512;SDS011;45330;51.634;5.562;2023-02-18T06:45:13;23.05;;;9.80;;
59512;SDS011;45330;51.634;5.562;2023-02-18T06:47:39;25.70;;;11.15;;
59512;SDS011;45330;51.634;5.562;2023-02-18T06:50:04;24.75;;;10.60;;
59512;SDS011;45330;51.634;5.562;2023-02-18T06:52:30;24.17;;;10.38;;
59512;SDS011;45330;51.634;5.562;2023-02-18T06:54:57;25.75;;;11.63;;
59512;SDS011;45330;51.634;5.562;2023-02-18T06:57:22;25.05;;;11.13;;
59512;SDS011;45330;51.634;5.562;2023-02-18T06:59:48;27.25;;;12.32;;
59512;SDS011;45330;51.634;5.562;2023-02-18T07:02:13;27.65;;;13.05;;
59512;SDS011;45330;51.634;5.562;2023-02-18T07:04:39;26.80;;;13.65;;
59512;SDS011;45330;51.634;5.562;2023-02-18T07:07:04;27.10;;;14.10;;
59512;SDS011;45330;51.634;5.562;2023-02-18T07:09:30;26.95;;;14.20;;
59512;SDS011;45330;51.634;5.562;2023-02-18T07:11:55;27.40;;;14.10;;
59512;SDS011;45330;51.634;5.562;2023-02-18T07:14:20;25.92;;;13.35;;
59512;SDS011;45330;51.634;5.562;2023-02-18T07:16:48;23.35;;;11.65;;
59512;SDS011;45330;51.634;5.562;2023-02-18T07:19:13;24.05;;;12.35;;
59512;SDS011;45330;51.634;5.562;2023-02-18T07:21:39;24.02;;;12.23;;
59512;SDS011;45330;51.634;5.562;2023-02-18T07:24:04;22.02;;;10.85;;
59512;SDS011;45330;51.634;5.562;2023-02-18T07:26:30;21.70;;;9.70;;
59512;SDS011;45330;51.634;5.562;2023-02-18T07:28:55;22.48;;;8.07;;
59512;SDS011;45330;51.634;5.562;2023-02-18T07:31:21;22.27;;;7.90;;
59512;SDS011;45330;51.634;5.562;2023-02-18T07:33:46;19.92;;;8.40;;
59512;SDS011;45330;51.634;5.562;2023-02-18T07:36:11;20.00;;;8.15;;
59512;SDS011;45330;51.634;5.562;2023-02-18T07:38:37;20.02;;;8.23;;
59512;SDS011;45330;51.634;5.562;2023-02-18T07:41:02;20.73;;;8.80;;
59512;SDS011;45330;51.634;5.562;2023-02-18T07:43:28;23.13;;;9.85;;
59512;SDS011;45330;51.634;5.562;2023-02-18T07:45:53;23.42;;;9.93;;
59512;SDS011;45330;51.634;5.562;2023-02-18T07:48:18;21.65;;;10.18;;
59512;SDS011;45330;51.634;5.562;2023-02-18T07:50:44;24.65;;;10.63;;
59512;SDS011;45330;51.634;5.562;2023-02-18T07:53:11;26.20;;;11.43;;
59512;SDS011;45330;51.634;5.562;2023-02-18T07:55:38;23.48;;;10.57;;
59512;SDS011;45330;51.634;5.562;2023-02-18T08:00:49;25.52;;;11.38;;
59512;SDS011;45330;51.634;5.562;2023-02-18T08:03:16;25.75;;;11.80;;
59512;SDS011;45330;51.634;5.562;2023-02-18T08:05:43;24.80;;;11.40;;
59512;SDS011;45330;51.634;5.562;2023-02-18T08:08:11;29.33;;;11.38;;
59512;SDS011;45330;51.634;5.562;2023-02-18T08:10:38;23.13;;;11.15;;
59512;SDS011;45330;51.634;5.562;2023-02-18T08:13:03;24.33;;;10.70;;
59512;SDS011;45330;51.634;5.562;2023-02-18T08:15:29;23.63;;;9.57;;
59512;SDS011;45330;51.634;5.562;2023-02-18T08:17:54;25.00;;;10.52;;
59512;SDS011;45330;51.634;5.562;2023-02-18T08:20:19;23.10;;;9.85;;
59512;SDS011;45330;51.634;5.562;2023-02-18T08:22:45;25.45;;;10.20;;
59512;SDS011;45330;51.634;5.562;2023-02-18T08:25:10;21.08;;;9.40;;
59512;SDS011;45330;51.634;5.562;2023-02-18T08:27:36;22.75;;;9.05;;
59512;SDS011;45330;51.634;5.562;2023-02-18T08:30:01;22.75;;;9.05;;
59512;SDS011;45330;51.634;5.562;2023-02-18T08:32:27;25.70;;;8.63;;
59512;SDS011;45330;51.634;5.562;2023-02-18T08:34:53;21.55;;;8.02;;
59512;SDS011;45330;51.634;5.562;2023-02-18T08:37:19;23.50;;;8.05;;
59512;SDS011;45330;51.634;5.562;2023-02-18T08:39:44;23.45;;;8.32;;
59512;SDS011;45330;51.634;5.562;2023-02-18T08:42:09;26.05;;;8.30;;
59512;SDS011;45330;51.634;5.562;2023-02-18T08:44:35;24.13;;;8.45;;
59512;SDS011;45330;51.634;5.562;2023-02-18T08:47:00;24.17;;;7.55;;
59512;SDS011;45330;51.634;5.562;2023-02-18T08:49:25;23.73;;;7.97;;
59512;SDS011;45330;51.634;5.562;2023-02-18T08:51:51;24.55;;;7.22;;
59512;SDS011;45330;51.634;5.562;2023-02-18T08:54:17;22.92;;;7.20;;
59512;SDS011;45330;51.634;5.562;2023-02-18T08:56:42;25.33;;;7.70;;
59512;SDS011;45330;51.634;5.562;2023-02-18T08:59:08;23.70;;;7.35;;
59512;SDS011;45330;51.634;5.562;2023-02-18T09:01:34;21.55;;;7.18;;
59512;SDS011;45330;51.634;5.562;2023-02-18T09:03:59;23.40;;;6.82;;
59512;SDS011;45330;51.634;5.562;2023-02-18T09:06:24;21.60;;;7.25;;
59512;SDS011;45330;51.634;5.562;2023-02-18T09:08:50;20.70;;;6.38;;
59512;SDS011;45330;51.634;5.562;2023-02-18T09:11:15;23.17;;;7.15;;
59512;SDS011;45330;51.634;5.562;2023-02-18T09:13:42;21.40;;;7.07;;
59512;SDS011;45330;51.634;5.562;2023-02-18T09:16:11;21.38;;;6.72;;
59512;SDS011;45330;51.634;5.562;2023-02-18T09:18:38;22.77;;;6.68;;
59512;SDS011;45330;51.634;5.562;2023-02-18T09:21:05;24.80;;;7.22;;
59512;SDS011;45330;51.634;5.562;2023-02-18T09:23:33;21.73;;;6.68;;
59512;SDS011;45330;51.634;5.562;2023-02-18T09:26:02;22.20;;;7.43;;
59512;SDS011;45330;51.634;5.562;2023-02-18T09:28:30;18.57;;;5.67;;
59512;SDS011;45330;51.634;5.562;2023-02-18T09:30:55;19.48;;;6.07;;
59512;SDS011;45330;51.634;5.562;2023-02-18T09:33:20;23.38;;;6.38;;
59512;SDS011;45330;51.634;5.562;2023-02-18T09:35:46;21.85;;;5.95;;
59512;SDS011;45330;51.634;5.562;2023-02-18T09:38:13;23.48;;;6.15;;
59512;SDS011;45330;51.634;5.562;2023-02-18T09:40:47;19.33;;;5.40;;
59512;SDS011;45330;51.634;5.562;2023-02-18T09:43:49;22.20;;;5.03;;
59512;SDS011;45330;51.634;5.562;2023-02-18T09:46:53;22.30;;;5.43;;
59512;SDS011;45330;51.634;5.562;2023-02-18T09:49:03;20.23;;;4.70;;
59512;SDS011;45330;51.634;5.562;2023-02-18T09:51:36;18.90;;;3.83;;
59512;SDS011;45330;51.634;5.562;2023-02-18T09:54:02;19.02;;;4.32;;
59512;SDS011;45330;51.634;5.562;2023-02-18T09:56:30;17.80;;;4.13;;
59512;SDS011;45330;51.634;5.562;2023-02-18T10:01:31;11.35;;;3.40;;
59512;SDS011;45330;51.634;5.562;2023-02-18T10:04:46;22.42;;;4.20;;
59512;SDS011;45330;51.634;5.562;2023-02-18T10:06:51;16.92;;;3.55;;
59512;SDS011;45330;51.634;5.562;2023-02-18T10:09:19;12.50;;;3.47;;
59512;SDS011;45330;51.634;5.562;2023-02-18T10:11:47;19.73;;;3.25;;
59512;SDS011;45330;51.634;5.562;2023-02-18T10:14:15;13.88;;;3.47;;
59512;SDS011;45330;51.634;5.562;2023-02-18T10:16:42;15.48;;;3.50;;
59512;SDS011;45330;51.634;5.562;2023-02-18T10:19:20;18.65;;;3.67;;
59512;SDS011;45330;51.634;5.562;2023-02-18T10:21:50;15.83;;;3.30;;
59512;SDS011;45330;51.634;5.562;2023-02-18T10:26:45;12.52;;;3.50;;
59512;SDS011;45330;51.634;5.562;2023-02-18T10:29:13;12.93;;;3.60;;
59512;SDS011;45330;51.634;5.562;2023-02-18T10:31:42;21.05;;;3.63;;
59512;SDS011;45330;51.634;5.562;2023-02-18T10:34:16;16.15;;;3.78;;
59512;SDS011;45330;51.634;5.562;2023-02-18T10:36:55;16.52;;;3.67;;
59512;SDS011;45330;51.634;5.562;2023-02-18T10:50:16;16.90;;;3.80;;
59512;SDS011;45330;51.634;5.562;2023-02-18T10:52:59;19.23;;;4.35;;
59512;SDS011;45330;51.634;5.562;2023-02-18T10:55:36;18.60;;;4.57;;
59512;SDS011;45330;51.634;5.562;2023-02-18T11:01:14;16.67;;;4.30;;
59512;SDS011;45330;51.634;5.562;2023-02-18T11:03:45;20.42;;;4.88;;
59512;SDS011;45330;51.634;5.562;2023-02-18T11:06:27;15.13;;;4.95;;
59512;SDS011;45330;51.634;5.562;2023-02-18T11:08:57;16.98;;;4.97;;
59512;SDS011;45330;51.634;5.562;2023-02-18T11:11:24;17.13;;;4.60;;
59512;SDS011;45330;51.634;5.562;2023-02-18T11:16:22;20.55;;;5.40;;
59512;SDS011;45330;51.634;5.562;2023-02-18T11:18:48;16.23;;;4.70;;
59512;SDS011;45330;51.634;5.562;2023-02-18T11:21:30;14.88;;;5.20;;
59512;SDS011;45330;51.634;5.562;2023-02-18T11:24:05;14.90;;;5.35;;
59512;SDS011;45330;51.634;5.562;2023-02-18T11:26:33;14.63;;;5.22;;
59512;SDS011;45330;51.634;5.562;2023-02-18T11:29:08;16.80;;;5.80;;
59512;SDS011;45330;51.634;5.562;2023-02-18T11:31:43;24.02;;;6.10;;
59512;SDS011;45330;51.634;5.562;2023-02-18T11:34:25;15.82;;;5.75;;
59512;SDS011;45330;51.634;5.562;2023-02-18T11:36:53;17.67;;;6.25;;
59512;SDS011;45330;51.634;5.562;2023-02-18T11:39:23;15.68;;;5.90;;
59512;SDS011;45330;51.634;5.562;2023-02-18T11:42:01;20.55;;;6.00;;
59512;SDS011;45330;51.634;5.562;2023-02-18T11:44:32;21.05;;;6.70;;
59512;SDS011;45330;51.634;5.562;2023-02-18T11:47:01;18.90;;;5.80;;
59512;SDS011;45330;51.634;5.562;2023-02-18T11:49:42;20.40;;;6.57;;
59512;SDS011;45330;51.634;5.562;2023-02-18T11:52:26;19.63;;;6.72;;
59512;SDS011;45330;51.634;5.562;2023-02-18T11:55:01;21.38;;;6.60;;
59512;SDS011;45330;51.634;5.562;2023-02-18T11:57:29;20.35;;;6.50;;
59512;SDS011;45330;51.634;5.562;2023-02-18T11:59:57;18.38;;;6.50;;
59512;SDS011;45330;51.634;5.562;2023-02-18T12:02:33;14.80;;;6.15;;
59512;SDS011;45330;51.634;5.562;2023-02-18T12:05:04;18.83;;;6.85;;
59512;SDS011;45330;51.634;5.562;2023-02-18T12:13:30;19.52;;;6.28;;
59512;SDS011;45330;51.634;5.562;2023-02-18T12:37:04;14.70;;;4.00;;
59512;SDS011;45330;51.634;5.562;2023-02-18T12:54:08;12.13;;;3.50;;
59512;SDS011;45330;51.634;5.562;2023-02-18T13:08:42;12.85;;;3.15;;
59512;SDS011;45330;51.634;5.562;2023-02-18T13:16:46;15.23;;;3.42;;
59512;SDS011;45330;51.634;5.562;2023-02-18T13:21:44;11.02;;;3.65;;
59512;SDS011;45330;51.634;5.562;2023-02-18T13:24:13;16.45;;;3.28;;
59512;SDS011;45330;51.634;5.562;2023-02-18T13:26:45;10.55;;;2.60;;
59512;SDS011;45330;51.634;5.562;2023-02-18T13:34:50;13.80;;;3.13;;
59512;SDS011;45330;51.634;5.562;2023-02-18T13:40:20;16.88;;;3.47;;
59512;SDS011;45330;51.634;5.562;2023-02-18T13:42:54;13.20;;;2.83;;
59512;SDS011;45330;51.634;5.562;2023-02-18T13:45:39;13.63;;;2.83;;
59512;SDS011;45330;51.634;5.562;2023-02-18T13:48:05;13.55;;;3.22;;
59512;SDS011;45330;51.634;5.562;2023-02-18T13:50:47;12.48;;;3.00;;
59512;SDS011;45330;51.634;5.562;2023-02-18T13:53:13;11.45;;;2.70;;
59512;SDS011;45330;51.634;5.562;2023-02-18T14:05:55;15.05;;;3.28;;
59512;SDS011;45330;51.634;5.562;2023-02-18T14:11:41;10.57;;;2.60;;
59512;SDS011;45330;51.634;5.562;2023-02-18T14:13:51;13.33;;;2.77;;
59512;SDS011;45330;51.634;5.562;2023-02-18T14:16:20;11.57;;;2.92;;
59512;SDS011;45330;51.634;5.562;2023-02-18T14:33:38;11.93;;;2.72;;
59512;SDS011;45330;51.634;5.562;2023-02-18T14:47:53;11.65;;;3.05;;
59512;SDS011;45330;51.634;5.562;2023-02-18T14:50:31;14.73;;;2.72;;
59512;SDS011;45330;51.634;5.562;2023-02-18T14:53:01;9.98;;;2.78;;
59512;SDS011;45330;51.634;5.562;2023-02-18T14:55:31;14.80;;;3.10;;
59512;SDS011;45330;51.634;5.562;2023-02-18T14:58:00;13.73;;;3.22;;
59512;SDS011;45330;51.634;5.562;2023-02-18T15:00:33;6.60;;;2.30;;
59512;SDS011;45330;51.634;5.562;2023-02-18T15:03:00;12.73;;;2.53;;
59512;SDS011;45330;51.634;5.562;2023-02-18T15:05:28;11.02;;;2.47;;
59512;SDS011;45330;51.634;5.562;2023-02-18T15:08:02;12.02;;;2.60;;
59512;SDS011;45330;51.634;5.562;2023-02-18T15:10:37;11.07;;;2.50;;
59512;SDS011;45330;51.634;5.562;2023-02-18T15:13:12;11.48;;;2.97;;
59512;SDS011;45330;51.634;5.562;2023-02-18T15:15:38;10.35;;;3.00;;
59512;SDS011;45330;51.634;5.562;2023-02-18T15:18:12;9.63;;;2.80;;
59512;SDS011;45330;51.634;5.562;2023-02-18T15:20:45;11.80;;;2.53;;
59512;SDS011;45330;51.634;5.562;2023-02-18T15:23:12;16.75;;;3.00;;
59512;SDS011;45330;51.634;5.562;2023-02-18T15:25:41;10.35;;;2.65;;
59512;SDS011;45330;51.634;5.562;2023-02-18T15:28:26;8.52;;;2.38;;
59512;SDS011;45330;51.634;5.562;2023-02-18T15:33:20;12.75;;;2.83;;
59512;SDS011;45330;51.634;5.562;2023-02-18T15:35:46;12.73;;;2.83;;
59512;SDS011;45330;51.634;5.562;2023-02-18T15:38:13;11.65;;;3.22;;
59512;SDS011;45330;51.634;5.562;2023-02-18T15:40:41;8.93;;;2.35;;
59512;SDS011;45330;51.634;5.562;2023-02-18T15:43:14;14.60;;;3.22;;
59512;SDS011;45330;51.634;5.562;2023-02-18T15:45:43;13.07;;;2.75;;
59512;SDS011;45330;51.634;5.562;2023-02-18T15:48:26;10.05;;;2.72;;
59512;SDS011;45330;51.634;5.562;2023-02-18T15:50:56;14.00;;;2.67;;
59512;SDS011;45330;51.634;5.562;2023-02-18T15:53:26;15.48;;;3.58;;
59512;SDS011;45330;51.634;5.562;2023-02-18T15:55:52;12.88;;;2.78;;
59512;SDS011;45330;51.634;5.562;2023-02-18T15:58:29;13.13;;;3.03;;
59512;SDS011;45330;51.634;5.562;2023-02-18T16:00:58;11.98;;;3.20;;
59512;SDS011;45330;51.634;5.562;2023-02-18T16:03:27;12.00;;;2.50;;
59512;SDS011;45330;51.634;5.562;2023-02-18T16:11:34;13.18;;;3.28;;
59512;SDS011;45330;51.634;5.562;2023-02-18T16:14:03;10.77;;;2.75;;
59512;SDS011;45330;51.634;5.562;2023-02-18T16:16:31;13.20;;;3.00;;
59512;SDS011;45330;51.634;5.562;2023-02-18T16:19:01;10.35;;;2.55;;
59512;SDS011;45330;51.634;5.562;2023-02-18T16:21:32;12.52;;;2.80;;
59512;SDS011;45330;51.634;5.562;2023-02-18T16:24:02;12.35;;;3.03;;
59512;SDS011;45330;51.634;5.562;2023-02-18T16:26:42;12.05;;;2.88;;
59512;SDS011;45330;51.634;5.562;2023-02-18T16:29:11;9.80;;;2.75;;
59512;SDS011;45330;51.634;5.562;2023-02-18T16:31:48;12.00;;;2.70;;
59512;SDS011;45330;51.634;5.562;2023-02-18T16:34:14;9.82;;;2.83;;
59512;SDS011;45330;51.634;5.562;2023-02-18T16:36:39;11.40;;;3.15;;
59512;SDS011;45330;51.634;5.562;2023-02-18T16:39:26;10.43;;;3.10;;
59512;SDS011;45330;51.634;5.562;2023-02-18T16:41:53;14.15;;;3.00;;
59512;SDS011;45330;51.634;5.562;2023-02-18T16:44:18;11.65;;;3.00;;
59512;SDS011;45330;51.634;5.562;2023-02-18T16:46:44;12.10;;;3.13;;
59512;SDS011;45330;51.634;5.562;2023-02-18T16:49:11;15.10;;;3.28;;
59512;SDS011;45330;51.634;5.562;2023-02-18T16:51:38;15.10;;;3.33;;
59512;SDS011;45330;51.634;5.562;2023-02-18T16:54:08;13.23;;;3.55;;
59512;SDS011;45330;51.634;5.562;2023-02-18T16:56:34;14.60;;;3.85;;
59512;SDS011;45330;51.634;5.562;2023-02-18T16:59:00;14.05;;;3.95;;
59512;SDS011;45330;51.634;5.562;2023-02-18T17:01:33;17.63;;;5.65;;
59512;SDS011;45330;51.634;5.562;2023-02-18T17:04:05;18.60;;;7.60;;
59512;SDS011;45330;51.634;5.562;2023-02-18T17:06:33;20.02;;;8.57;;
59512;SDS011;45330;51.634;5.562;2023-02-18T17:08:59;21.90;;;9.73;;
59512;SDS011;45330;51.634;5.562;2023-02-18T17:11:28;23.10;;;9.55;;
59512;SDS011;45330;51.634;5.562;2023-02-18T17:13:56;21.05;;;9.93;;
59512;SDS011;45330;51.634;5.562;2023-02-18T17:16:25;23.48;;;10.15;;
59512;SDS011;45330;51.634;5.562;2023-02-18T17:18:51;24.65;;;10.57;;
59512;SDS011;45330;51.634;5.562;2023-02-18T17:21:18;22.67;;;10.60;;
59512;SDS011;45330;51.634;5.562;2023-02-18T17:23:45;25.98;;;11.05;;
59512;SDS011;45330;51.634;5.562;2023-02-18T17:26:24;23.85;;;12.23;;
59512;SDS011;45330;51.634;5.562;2023-02-18T17:28:52;25.13;;;12.18;;
59512;SDS011;45330;51.634;5.562;2023-02-18T17:31:20;25.42;;;14.73;;
59512;SDS011;45330;51.634;5.562;2023-02-18T17:33:53;27.05;;;14.65;;
59512;SDS011;45330;51.634;5.562;2023-02-18T17:36:20;27.83;;;16.95;;
59512;SDS011;45330;51.634;5.562;2023-02-18T17:38:45;27.73;;;16.70;;